Time;durP1;ratioP1;P1;durP2;ratioP2;P2;SDS_P1;SDS_P2;PMS_P1;PMS_P2;Temp;Humidity;BMP_temperature;BMP_pressure;BME280_temperature;BME280_humidity;BME280_pressure;Samples;Min_cycle;Max_cycle;Signal;HPM_P1;HPM_P2
2022/07/02 00:00:21;;;;;;;2.40;2.10;;;12.20;99.90;;;;;;4214207;28;20179;-66
2022/07/02 00:02:24;;;;;;;1.70;1.57;;;12.20;99.90;;;;;;4199322;28;20256;-66
2022/07/02 00:04:35;;;;;;;1.97;1.77;;;12.10;99.90;;;;;;4197523;28;20187;-67
2022/07/02 00:06:39;;;;;;;2.50;1.57;;;12.00;99.90;;;;;;4197442;28;20638;-66
2022/07/02 00:08:42;;;;;;;3.07;2.10;;;12.00;99.90;;;;;;4197524;28;20187;-65
2022/07/02 00:10:44;;;;;;;2.90;2.30;;;12.00;99.90;;;;;;4196860;28;20180;-65
2022/07/02 00:12:45;;;;;;;1.90;1.70;;;12.00;99.90;;;;;;4197126;28;20231;-66
2022/07/02 00:14:55;;;;;;;2.47;1.90;;;11.90;99.90;;;;;;4197458;28;20183;-65
2022/07/02 00:16:56;;;;;;;2.13;1.80;;;11.90;99.90;;;;;;4197238;28;20176;-66
2022/07/02 00:18:57;;;;;;;3.27;1.80;;;11.90;99.90;;;;;;4197153;28;20259;-66
2022/07/02 00:20:59;;;;;;;2.63;1.70;;;11.90;99.90;;;;;;4203084;28;20225;-65
2022/07/02 00:22:59;;;;;;;3.53;1.90;;;11.80;99.90;;;;;;4214202;28;20290;-66
2022/07/02 00:25:00;;;;;;;4.13;2.23;;;11.80;99.90;;;;;;4214058;28;20179;-66
2022/07/02 00:27:04;;;;;;;3.53;2.17;;;11.70;99.90;;;;;;4213979;28;20167;-66
2022/07/02 00:29:21;;;;;;;3.53;2.20;;;11.70;99.90;;;;;;4213951;28;20206;-66
2022/07/02 00:31:21;;;;;;;2.47;1.93;;;11.60;99.90;;;;;;4213497;28;20199;-66
2022/07/02 00:33:24;;;;;;;1.90;1.80;;;11.60;99.90;;;;;;4213761;28;20883;-66
2022/07/02 00:35:25;;;;;;;2.87;2.00;;;11.60;99.90;;;;;;4213788;28;20171;-66
2022/07/02 00:37:27;;;;;;;2.27;2.00;;;11.60;99.90;;;;;;4213792;28;20218;-66
2022/07/02 00:39:27;;;;;;;3.27;2.10;;;11.60;99.90;;;;;;4213491;28;20324;-66
2022/07/02 00:41:29;;;;;;;4.50;1.97;;;11.60;99.90;;;;;;4213015;28;20589;-65
2022/07/02 00:43:31;;;;;;;2.37;1.73;;;11.60;99.90;;;;;;4213747;28;20693;-64
2022/07/02 00:45:34;;;;;;;2.23;2.00;;;11.50;99.90;;;;;;4213583;28;20578;-65
2022/07/02 00:47:36;;;;;;;3.43;1.83;;;11.50;99.90;;;;;;4213507;28;20175;-65
2022/07/02 00:49:38;;;;;;;1.90;1.70;;;11.40;99.90;;;;;;4213656;28;20171;-66
2022/07/02 00:51:38;;;;;;;3.67;2.20;;;11.40;99.90;;;;;;4212647;28;20267;-65
2022/07/02 00:53:39;;;;;;;1.97;1.80;;;11.40;99.90;;;;;;4213514;28;20199;-65
2022/07/02 00:55:39;;;;;;;2.00;1.63;;;11.30;99.90;;;;;;4213342;28;20207;-65
2022/07/02 00:57:40;;;;;;;2.10;1.77;;;11.30;99.90;;;;;;4213389;28;20175;-66
2022/07/02 00:59:43;;;;;;;3.60;1.93;;;11.30;99.90;;;;;;4213644;28;20184;-65
2022/07/02 01:01:43;;;;;;;2.10;1.90;;;11.30;99.90;;;;;;4212698;28;20233;-67
2022/07/02 01:03:46;;;;;;;2.00;1.60;;;11.20;99.90;;;;;;4213274;28;20167;-65
2022/07/02 01:05:49;;;;;;;2.07;1.70;;;11.20;99.90;;;;;;4213355;28;20641;-65
2022/07/02 01:10:17;;;;;;;1.90;1.70;;;11.10;99.90;;;;;;4213283;28;20217;-65
2022/07/02 01:12:19;;;;;;;2.93;2.10;;;11.10;99.90;;;;;;4212362;28;20197;-66
2022/07/02 01:14:21;;;;;;;4.43;2.10;;;11.10;99.90;;;;;;4213141;28;20551;-65
2022/07/02 01:16:22;;;;;;;3.73;2.33;;;11.10;99.90;;;;;;4213321;28;20550;-65
2022/07/02 01:18:23;;;;;;;2.97;2.10;;;11.00;99.90;;;;;;4213007;28;20218;-65
2022/07/02 01:20:24;;;;;;;3.07;2.07;;;11.00;99.90;;;;;;4212958;28;20179;-66
2022/07/02 01:22:25;;;;;;;3.40;2.47;;;11.00;99.90;;;;;;4212229;28;20229;-66
2022/07/02 01:24:26;;;;;;;3.00;2.60;;;10.90;99.90;;;;;;4213438;28;20179;-66
2022/07/02 01:26:26;;;;;;;2.77;2.30;;;10.80;99.90;;;;;;4212956;28;20217;-66
2022/07/02 01:28:27;;;;;;;3.50;2.20;;;10.90;99.90;;;;;;4212649;28;20182;-67
2022/07/02 01:30:27;;;;;;;4.00;2.70;;;10.90;99.90;;;;;;4213023;28;20183;-66
2022/07/02 01:32:28;;;;;;;4.93;2.40;;;10.90;99.90;;;;;;4212366;28;20201;-66
2022/07/02 01:34:33;;;;;;;3.93;2.63;;;10.90;99.90;;;;;;4212890;28;20672;-69
2022/07/02 01:36:34;;;;;;;2.70;2.23;;;10.80;99.90;;;;;;4213281;28;20179;-67
2022/07/02 01:38:35;;;;;;;2.63;2.10;;;10.80;99.90;;;;;;4211451;28;20269;-67
2022/07/02 01:40:36;;;;;;;3.10;2.53;;;10.80;99.90;;;;;;4212673;28;20178;-67
2022/07/02 01:42:37;;;;;;;2.07;1.80;;;10.80;99.90;;;;;;4211921;28;20222;-66
2022/07/02 01:44:38;;;;;;;2.40;1.90;;;10.70;99.90;;;;;;4212584;28;20706;-67
2022/07/02 01:46:39;;;;;;;2.73;1.90;;;10.70;99.90;;;;;;4212570;28;20182;-66
2022/07/02 01:48:39;;;;;;;2.20;2.00;;;10.70;99.90;;;;;;4212712;28;20182;-67
2022/07/02 01:50:40;;;;;;;3.30;1.80;;;10.70;99.90;;;;;;4212208;28;20171;-67
2022/07/02 01:52:40;;;;;;;2.03;1.83;;;10.80;99.90;;;;;;4211784;28;20187;-67
2022/07/02 01:54:42;;;;;;;1.83;1.50;;;10.80;99.90;;;;;;4212730;28;20724;-67
2022/07/02 01:56:43;;;;;;;2.90;1.57;;;10.90;99.90;;;;;;4212655;28;20182;-66
2022/07/02 01:58:44;;;;;;;1.50;1.40;;;10.90;99.90;;;;;;4212653;28;20559;-69
2022/07/02 02:00:44;;;;;;;2.90;1.67;;;10.90;99.90;;;;;;4211894;28;20191;-67
2022/07/02 02:02:46;;;;;;;3.47;1.80;;;11.00;99.90;;;;;;4212498;28;20283;-67
2022/07/02 02:04:46;;;;;;;4.27;1.50;;;11.00;99.90;;;;;;4212061;28;20673;-67
2022/07/02 02:06:47;;;;;;;2.10;1.67;;;11.00;99.90;;;;;;4198023;28;20188;-67
2022/07/02 02:08:48;;;;;;;1.70;1.60;;;11.10;99.90;;;;;;4195595;28;20248;-67
2022/07/02 02:10:49;;;;;;;1.77;1.60;;;11.10;99.90;;;;;;4195136;28;20271;-67
2022/07/02 02:12:49;;;;;;;3.80;2.00;;;11.20;99.90;;;;;;4195511;28;20598;-66
2022/07/02 02:14:50;;;;;;;1.70;1.60;;;11.20;99.90;;;;;;4195681;28;20326;-66
2022/07/02 02:16:51;;;;;;;1.90;1.77;;;11.30;99.90;;;;;;4195393;28;20649;-66
2022/07/02 02:18:52;;;;;;;3.60;2.17;;;11.20;99.90;;;;;;4195613;28;20232;-66
2022/07/02 02:20:53;;;;;;;2.20;2.00;;;11.20;99.90;;;;;;4194925;28;20179;-66
2022/07/02 02:22:53;;;;;;;1.93;1.77;;;11.30;99.90;;;;;;4195429;28;20243;-66
2022/07/02 02:24:54;;;;;;;4.70;1.83;;;11.30;99.90;;;;;;4197860;28;20180;-66
2022/07/02 02:26:54;;;;;;;3.70;2.20;;;11.40;99.90;;;;;;4212463;28;20175;-66
2022/07/02 02:28:55;;;;;;;4.77;2.40;;;11.40;99.90;;;;;;4212267;28;20599;-65
2022/07/02 02:30:55;;;;;;;5.10;2.70;;;11.50;99.90;;;;;;4211686;28;20195;-66
2022/07/02 02:32:56;;;;;;;2.93;2.10;;;11.50;99.90;;;;;;4212342;28;20202;-66
2022/07/02 02:34:56;;;;;;;3.60;1.80;;;11.30;99.90;;;;;;4206046;28;20316;-66
2022/07/02 02:36:57;;;;;;;2.47;2.20;;;11.40;99.90;;;;;;4212028;28;20598;-67
2022/07/02 02:38:58;;;;;;;3.93;2.57;;;11.30;99.90;;;;;;4212173;28;20176;-66
2022/07/02 02:40:58;;;;;;;5.30;2.50;;;11.20;99.90;;;;;;4211727;28;20266;-66
2022/07/02 02:42:59;;;;;;;18.87;3.47;;;11.20;99.90;;;;;;4212174;28;20299;-65
2022/07/02 02:44:59;;;;;;;19.70;4.20;;;11.10;99.90;;;;;;4212065;28;20187;-66
2022/07/02 02:47:00;;;;;;;40.07;7.40;;;11.00;99.90;;;;;;4212052;28;20206;-66
2022/07/02 02:49:00;;;;;;;42.17;6.20;;;11.00;99.90;;;;;;4212110;28;20650;-66
2022/07/02 02:51:02;;;;;;;29.03;5.93;;;11.00;99.90;;;;;;4211392;28;20186;-66
2022/07/02 02:53:03;;;;;;;90.93;10.73;;;11.00;99.90;;;;;;4210402;28;20238;-65
2022/07/02 02:55:04;;;;;;;13.50;4.37;;;11.10;99.90;;;;;;4212001;28;20190;-66
2022/07/02 02:57:04;;;;;;;23.33;4.20;;;11.00;99.90;;;;;;4212138;28;20262;-65
2022/07/02 02:59:05;;;;;;;12.00;4.23;;;11.00;99.90;;;;;;4212055;28;20646;-66
2022/07/02 03:01:05;;;;;;;19.00;4.60;;;11.00;99.90;;;;;;4211187;28;20261;-66
2022/07/02 03:03:06;;;;;;;18.77;4.93;;;11.00;99.90;;;;;;4212105;28;20199;-66
2022/07/02 03:05:07;;;;;;;24.53;5.10;;;11.00;99.90;;;;;;4215018;28;20179;-66
2022/07/02 03:07:07;;;;;;;67.70;8.43;;;10.90;99.90;;;;;;4215309;28;20257;-65
2022/07/02 03:09:08;;;;;;;10.87;4.23;;;10.90;99.90;;;;;;4215164;28;20218;-65
2022/07/02 03:11:08;;;;;;;27.77;7.07;;;10.80;99.90;;;;;;4214673;28;20625;-66
2022/07/02 03:13:09;;;;;;;11.20;5.40;;;10.80;99.90;;;;;;4215041;28;20895;-66
2022/07/02 03:15:10;;;;;;;21.13;7.07;;;10.80;99.90;;;;;;4215155;28;20171;-65
2022/07/02 03:17:10;;;;;;;33.20;8.20;;;10.80;99.90;;;;;;4215041;28;20193;-66
2022/07/02 03:19:11;;;;;;;41.07;7.67;;;10.70;99.90;;;;;;4214848;28;20171;-66
2022/07/02 03:21:12;;;;;;;20.57;5.33;;;10.60;99.90;;;;;;4214333;28;20207;-65
2022/07/02 03:23:13;;;;;;;30.03;7.37;;;10.70;99.90;;;;;;4214962;28;20597;-66
2022/07/02 03:25:13;;;;;;;53.40;8.23;;;10.60;99.90;;;;;;4214952;28;20174;-66
2022/07/02 03:27:14;;;;;;;59.63;8.10;;;10.70;99.90;;;;;;4215056;28;20174;-65
2022/07/02 03:29:15;;;;;;;57.20;9.03;;;10.60;99.90;;;;;;4214685;28;20691;-65
2022/07/02 03:31:15;;;;;;;23.77;5.93;;;10.60;99.90;;;;;;4214156;28;20177;-66
2022/07/02 03:33:16;;;;;;;30.50;7.60;;;10.60;99.90;;;;;;4214815;28;20756;-65
2022/07/02 03:35:16;;;;;;;17.23;4.73;;;10.60;99.90;;;;;;4214643;28;20179;-66
2022/07/02 03:37:17;;;;;;;17.17;5.93;;;10.60;99.90;;;;;;4214453;28;20668;-66
2022/07/02 03:39:17;;;;;;;24.60;6.17;;;10.60;99.90;;;;;;4214601;28;20310;-66
2022/07/02 03:41:18;;;;;;;12.43;5.10;;;10.50;99.90;;;;;;4213956;28;20202;-66
2022/07/02 03:43:18;;;;;;;11.87;4.17;;;10.50;99.90;;;;;;4214726;28;20187;-66
2022/07/02 03:45:19;;;;;;;19.07;5.77;;;10.50;99.90;;;;;;4214535;28;20206;-66
2022/07/02 03:47:19;;;;;;;17.20;5.40;;;10.50;99.90;;;;;;4213285;28;20175;-66
2022/07/02 03:49:20;;;;;;;12.57;4.80;;;10.50;99.90;;;;;;4214267;28;20558;-66
2022/07/02 03:51:21;;;;;;;13.63;4.47;;;10.40;99.90;;;;;;4214161;28;20257;-65
2022/07/02 03:53:21;;;;;;;32.47;5.67;;;10.40;99.90;;;;;;4214651;28;20195;-66
2022/07/02 03:55:22;;;;;;;12.93;5.33;;;10.40;99.90;;;;;;4214451;28;20205;-67
2022/07/02 03:57:22;;;;;;;38.27;7.10;;;10.30;99.90;;;;;;4214231;28;20270;-66
2022/07/02 03:59:24;;;;;;;11.13;4.03;;;10.30;99.90;;;;;;4214344;28;20186;-66
2022/07/02 04:01:25;;;;;;;21.73;5.90;;;10.40;99.90;;;;;;4213562;28;20638;-66
2022/07/02 04:03:25;;;;;;;87.77;11.53;;;10.30;99.90;;;;;;4214382;28;20194;-66
2022/07/02 04:05:26;;;;;;;12.00;4.27;;;10.20;99.90;;;;;;4208981;28;20645;-66
2022/07/02 04:07:27;;;;;;;21.97;5.33;;;10.30;99.90;;;;;;4197560;28;20240;-65
2022/07/02 04:09:27;;;;;;;60.57;7.60;;;10.30;99.90;;;;;;4197588;28;20316;-67
2022/07/02 04:11:28;;;;;;;129.13;13.30;;;10.30;99.90;;;;;;4196832;28;20709;-67
2022/07/02 04:13:28;;;;;;;25.37;7.10;;;10.40;99.90;;;;;;4197639;28;20775;-66
2022/07/02 04:15:29;;;;;;;27.33;7.30;;;10.40;99.90;;;;;;4197028;28;20179;-65
2022/07/02 04:17:30;;;;;;;14.20;4.80;;;10.40;99.90;;;;;;4205454;28;20178;-66
2022/07/02 04:19:30;;;;;;;12.37;5.20;;;10.40;99.90;;;;;;4214119;28;20171;-67
2022/07/02 04:21:31;;;;;;;12.70;4.63;;;10.30;99.90;;;;;;4213206;28;20250;-68
2022/07/02 04:23:31;;;;;;;13.27;5.20;;;10.30;99.90;;;;;;4214334;28;20202;-66
2022/07/02 04:25:32;;;;;;;9.63;4.90;;;10.30;99.90;;;;;;4213951;28;20210;-66
2022/07/02 04:27:32;;;;;;;9.43;4.50;;;10.30;99.90;;;;;;4214038;28;20175;-67
2022/07/02 04:29:33;;;;;;;7.27;4.37;;;10.20;99.90;;;;;;4214022;28;20188;-66
2022/07/02 04:31:34;;;;;;;4.57;3.37;;;10.20;99.90;;;;;;4213276;28;20219;-66
2022/07/02 04:33:34;;;;;;;7.33;4.40;;;10.20;99.90;;;;;;4214177;28;20212;-66
2022/07/02 04:35:35;;;;;;;4.60;3.50;;;10.20;99.90;;;;;;4214033;28;20182;-66
2022/07/02 04:37:35;;;;;;;5.33;3.70;;;10.10;99.90;;;;;;4214059;28;20529;-66
2022/07/02 04:39:36;;;;;;;4.80;3.30;;;10.20;99.90;;;;;;4214038;28;20584;-67
2022/07/02 04:41:36;;;;;;;3.67;2.67;;;10.20;99.90;;;;;;4213759;28;20311;-67
2022/07/02 04:43:37;;;;;;;4.80;2.80;;;10.10;99.90;;;;;;4213964;28;20202;-66
2022/07/02 04:45:37;;;;;;;3.43;2.93;;;10.10;99.90;;;;;;4213928;28;20251;-66
2022/07/02 04:47:38;;;;;;;4.53;3.40;;;10.10;99.90;;;;;;4214011;28;20171;-67
2022/07/02 04:49:39;;;;;;;3.10;2.73;;;10.00;99.90;;;;;;4214002;28;20186;-67
2022/07/02 04:51:39;;;;;;;5.27;3.80;;;10.10;99.90;;;;;;4202377;28;20191;-67
2022/07/02 04:53:40;;;;;;;4.70;3.00;;;10.10;99.90;;;;;;4209394;28;20218;-66
2022/07/02 04:55:40;;;;;;;2.60;2.20;;;10.10;99.90;;;;;;4213576;28;20198;-67
2022/07/02 04:57:41;;;;;;;2.73;2.37;;;10.10;99.90;;;;;;4213632;28;20178;-66
2022/07/02 04:59:44;;;;;;;4.97;2.87;;;10.10;99.90;;;;;;4213715;28;20275;-66
2022/07/02 05:01:45;;;;;;;3.57;2.80;;;10.10;99.90;;;;;;4212831;28;20258;-66
2022/07/02 05:03:45;;;;;;;3.43;3.10;;;10.10;99.90;;;;;;4213450;28;20178;-66
2022/07/02 05:05:46;;;;;;;4.17;3.13;;;10.10;99.90;;;;;;4213224;28;20171;-66
2022/07/02 05:07:46;;;;;;;2.50;2.30;;;10.10;99.90;;;;;;4213472;28;20203;-66
2022/07/02 05:09:47;;;;;;;2.30;2.10;;;10.10;99.90;;;;;;4212755;28;20537;-66
2022/07/02 05:11:47;;;;;;;2.30;2.10;;;10.20;99.90;;;;;;4212239;28;20667;-66
2022/07/02 05:13:48;;;;;;;2.63;2.30;;;10.20;99.90;;;;;;4212855;28;20178;-66
2022/07/02 05:15:50;;;;;;;3.23;2.13;;;10.20;99.90;;;;;;4211603;28;20218;-66
2022/07/02 05:17:50;;;;;;;2.17;1.77;;;10.30;99.90;;;;;;4212705;28;20236;-66
2022/07/02 05:19:51;;;;;;;2.40;1.90;;;10.30;99.90;;;;;;4212708;28;20265;-66
2022/07/02 05:21:52;;;;;;;2.63;2.43;;;10.30;99.90;;;;;;4211875;28;20232;-66
2022/07/02 05:23:52;;;;;;;2.87;2.40;;;10.40;99.90;;;;;;4212691;28;20200;-66
2022/07/02 05:25:53;;;;;;;3.37;2.50;;;10.30;99.90;;;;;;4212150;28;20640;-66
2022/07/02 05:27:54;;;;;;;2.87;2.07;;;10.40;99.90;;;;;;4212510;28;20235;-66
2022/07/02 05:29:54;;;;;;;2.17;1.97;;;10.40;99.90;;;;;;4212692;28;20181;-66
2022/07/02 05:31:55;;;;;;;3.07;2.20;;;10.50;99.90;;;;;;4211961;28;20581;-66
2022/07/02 05:33:55;;;;;;;2.20;1.77;;;10.50;99.90;;;;;;4212544;28;20671;-66
2022/07/02 05:35:56;;;;;;;4.17;2.23;;;10.60;99.90;;;;;;4212440;28;20667;-66
2022/07/02 05:37:56;;;;;;;4.80;2.40;;;10.70;99.90;;;;;;4212575;28;20179;-66
2022/07/02 05:39:57;;;;;;;4.50;2.90;;;10.70;99.90;;;;;;4212732;28;20672;-66
2022/07/02 05:41:57;;;;;;;3.97;3.00;;;10.90;99.90;;;;;;4211683;28;20205;-66
2022/07/02 05:43:58;;;;;;;3.70;2.87;;;11.00;99.90;;;;;;4212437;28;20732;-66
2022/07/02 05:45:59;;;;;;;3.47;3.00;;;11.10;99.90;;;;;;4212309;28;20254;-66
2022/07/02 05:47:59;;;;;;;4.10;3.17;;;11.20;99.90;;;;;;4212426;28;20233;-66
2022/07/02 05:50:00;;;;;;;3.43;3.10;;;11.30;99.90;;;;;;4212307;28;20550;-66
2022/07/02 05:52:00;;;;;;;3.50;2.80;;;11.40;99.90;;;;;;4211551;28;20190;-66
2022/07/02 05:54:01;;;;;;;3.30;3.00;;;11.50;99.90;;;;;;4212220;28;20250;-66
2022/07/02 05:56:02;;;;;;;2.60;2.40;;;11.60;99.90;;;;;;4212401;28;20587;-66
2022/07/02 05:58:02;;;;;;;3.90;2.83;;;11.60;99.90;;;;;;4205475;28;20179;-66
2022/07/02 06:00:07;;;;;;;3.07;2.63;;;11.80;99.90;;;;;;4195399;28;20175;-66
2022/07/02 06:02:07;;;;;;;7.37;3.00;;;11.80;99.90;;;;;;4194493;28;20219;-66
2022/07/02 06:04:08;;;;;;;2.93;2.43;;;11.80;99.90;;;;;;4195744;28;20542;-66
2022/07/02 06:08:27;;;;;;;2.43;2.10;;;12.00;99.90;;;;;;4195444;28;20183;-66
2022/07/02 06:10:28;;;;;;;2.53;2.27;;;12.20;99.90;;;;;;4195407;28;20172;-67
2022/07/02 06:12:28;;;;;;;2.50;2.30;;;12.30;99.90;;;;;;4194958;28;20611;-66
2022/07/02 06:14:29;;;;;;;2.27;1.80;;;12.30;99.90;;;;;;4195279;28;20184;-66
2022/07/02 06:16:30;;;;;;;2.33;2.07;;;12.40;99.90;;;;;;4195329;28;20183;-66
2022/07/02 06:18:30;;;;;;;3.67;1.80;;;12.30;99.90;;;;;;4195184;28;20182;-66
2022/07/02 06:20:31;;;;;;;2.07;1.60;;;12.50;99.90;;;;;;4194867;28;20196;-66
2022/07/02 06:22:31;;;;;;;3.40;1.90;;;12.60;99.90;;;;;;4194413;28;20211;-66
2022/07/02 06:24:32;;;;;;;1.97;1.53;;;12.60;99.90;;;;;;4207488;28;20210;-66
2022/07/02 06:26:32;;;;;;;1.70;1.50;;;12.70;99.90;;;;;;4211933;28;20182;-66
2022/07/02 06:28:33;;;;;;;1.70;1.50;;;12.80;99.90;;;;;;4211927;28;21040;-65
2022/07/02 06:30:33;;;;;;;2.53;1.30;;;12.90;99.90;;;;;;4211739;28;20185;-67
2022/07/02 06:32:35;;;;;;;1.67;1.40;;;12.90;99.90;;;;;;4211146;28;20836;-66
2022/07/02 06:34:36;;;;;;;1.73;1.57;;;13.10;99.90;;;;;;4211797;28;20249;-66
2022/07/02 06:36:36;;;;;;;1.43;1.33;;;13.10;99.90;;;;;;4211902;28;20610;-66
2022/07/02 06:38:38;;;;;;;1.40;1.30;;;13.30;99.90;;;;;;4214482;28;20185;-66
2022/07/02 06:40:38;;;;;;;1.03;1.00;;;13.40;99.90;;;;;;4215185;28;20186;-66
2022/07/02 06:42:39;;;;;;;1.43;1.20;;;13.40;99.90;;;;;;4209007;28;20592;-66
2022/07/02 06:44:39;;;;;;;1.30;1.20;;;13.50;99.90;;;;;;4214942;28;20194;-66
2022/07/02 06:46:40;;;;;;;1.23;0.97;;;13.60;99.90;;;;;;4214999;28;20327;-67
2022/07/02 06:48:40;;;;;;;1.33;1.23;;;13.60;99.90;;;;;;4215050;28;20922;-66
2022/07/02 06:50:41;;;;;;;1.03;1.00;;;13.60;99.90;;;;;;4214713;28;20171;-66
2022/07/02 06:52:44;;;;;;;1.37;1.27;;;13.80;99.90;;;;;;4214736;28;20270;-67
2022/07/02 06:54:45;;;;;;;1.20;1.10;;;13.70;99.90;;;;;;4215314;28;20177;-66
2022/07/02 06:56:45;;;;;;;0.97;0.97;;;13.80;99.90;;;;;;4215706;28;20608;-66
2022/07/02 06:58:46;;;;;;;0.80;0.80;;;14.00;99.10;;;;;;4215382;28;20303;-66
2022/07/02 07:00:46;;;;;;;1.03;1.00;;;13.90;99.90;;;;;;4214236;28;20179;-66
2022/07/02 07:02:47;;;;;;;1.63;1.50;;;14.10;98.90;;;;;;4214590;28;20564;-66
2022/07/02 07:04:47;;;;;;;0.80;0.80;;;14.30;97.80;;;;;;4214853;28;20167;-66
2022/07/02 07:07:00;;;;;;;1.20;1.13;;;14.40;96.00;;;;;;4214793;28;20182;-66
2022/07/02 07:09:00;;;;;;;3.87;0.97;;;14.40;94.70;;;;;;4214877;28;20182;-66
2022/07/02 07:11:01;;;;;;;1.07;0.97;;;14.60;95.20;;;;;;4214008;28;20179;-66
2022/07/02 07:13:01;;;;;;;1.87;1.73;;;14.70;95.60;;;;;;4214796;28;20681;-66
2022/07/02 07:15:06;;;;;;;1.30;0.90;;;14.90;96.20;;;;;;4214540;28;20171;-66
2022/07/02 07:17:07;;;;;;;1.93;1.20;;;14.80;95.40;;;;;;4214483;28;20222;-66
2022/07/02 07:19:07;;;;;;;3.90;3.63;;;15.00;94.40;;;;;;4214509;28;20179;-66
2022/07/02 07:21:08;;;;;;;0.93;0.90;;;15.10;94.20;;;;;;4213624;28;20235;-66
2022/07/02 07:23:08;;;;;;;0.80;0.80;;;15.30;93.20;;;;;;4214511;28;20199;-66
2022/07/02 07:25:09;;;;;;;0.90;0.90;;;15.50;93.00;;;;;;4214488;28;20218;-66
2022/07/02 07:27:10;;;;;;;1.23;0.87;;;15.50;92.40;;;;;;4214570;28;20202;-66
2022/07/02 07:29:10;;;;;;;0.80;0.80;;;15.50;93.00;;;;;;4214464;28;20258;-66
2022/07/02 07:31:11;;;;;;;1.80;0.90;;;15.60;92.60;;;;;;4213898;28;20183;-66
2022/07/02 07:33:11;;;;;;;0.80;0.70;;;15.80;92.40;;;;;;4214391;28;20281;-66
2022/07/02 07:35:12;;;;;;;0.97;0.87;;;15.90;91.20;;;;;;4214341;28;20737;-66
2022/07/02 07:37:13;;;;;;;1.00;0.90;;;15.80;90.90;;;;;;4214325;28;20175;-66
2022/07/02 07:39:14;;;;;;;0.83;0.83;;;15.90;90.70;;;;;;4214178;28;20183;-66
2022/07/02 07:41:15;;;;;;;3.80;1.10;;;16.00;89.50;;;;;;4213549;28;20574;-66
2022/07/02 07:43:15;;;;;;;1.47;1.37;;;16.10;87.50;;;;;;4214361;28;20195;-66
2022/07/02 07:45:16;;;;;;;0.80;0.80;;;16.20;87.30;;;;;;4214071;28;20183;-65
2022/07/02 07:47:16;;;;;;;1.57;1.17;;;16.20;86.00;;;;;;4214407;28;20175;-65
2022/07/02 07:49:17;;;;;;;3.37;3.17;;;16.30;89.30;;;;;;4213566;28;20176;-65
2022/07/02 07:51:18;;;;;;;1.00;0.80;;;16.30;84.00;;;;;;4213539;28;20175;-65
2022/07/02 07:53:18;;;;;;;0.97;0.80;;;16.50;83.10;;;;;;4214210;28;20194;-65
2022/07/02 07:55:19;;;;;;;1.13;1.00;;;16.50;85.00;;;;;;4213973;28;20189;-64
2022/07/02 07:57:19;;;;;;;1.00;1.00;;;16.70;85.30;;;;;;4213924;28;20236;-64
2022/07/02 07:59:20;;;;;;;4.03;3.83;;;16.70;81.10;;;;;;4213964;28;20175;-65
2022/07/02 08:01:20;;;;;;;2.70;1.10;;;16.70;80.50;;;;;;4213222;28;20357;-65
2022/07/02 08:03:21;;;;;;;1.37;0.80;;;16.70;85.90;;;;;;4199788;28;20203;-65
2022/07/02 08:05:22;;;;;;;0.80;0.80;;;16.80;79.90;;;;;;4197059;28;20260;-65
2022/07/02 08:07:23;;;;;;;0.70;0.70;;;17.00;78.10;;;;;;4197036;28;20646;-64
2022/07/02 08:09:24;;;;;;;4.57;3.90;;;17.10;76.00;;;;;;4197098;28;20574;-65
2022/07/02 08:11:25;;;;;;;0.80;0.80;;;17.20;74.70;;;;;;4196388;28;20210;-65
2022/07/02 08:13:25;;;;;;;0.87;0.87;;;17.20;74.90;;;;;;4196945;28;20206;-65
2022/07/02 08:15:27;;;;;;;2.03;1.67;;;17.30;71.90;;;;;;4197041;28;20190;-64
2022/07/02 08:17:29;;;;;;;1.37;1.10;;;17.40;71.60;;;;;;4197398;28;20179;-65
2022/07/02 08:19:29;;;;;;;1.50;0.90;;;17.50;71.30;;;;;;4208634;28;20250;-64
2022/07/02 08:21:30;;;;;;;0.70;0.70;;;17.60;69.30;;;;;;4212647;28;20206;-65
2022/07/02 08:23:30;;;;;;;1.43;0.80;;;17.60;67.30;;;;;;4213761;28;20191;-65
2022/07/02 08:25:31;;;;;;;0.80;0.80;;;17.60;68.50;;;;;;4213661;28;20178;-64
2022/07/02 08:27:32;;;;;;;0.73;0.63;;;17.90;70.90;;;;;;4213580;28;20235;-65
2022/07/02 08:29:32;;;;;;;1.50;1.40;;;18.10;72.00;;;;;;4213188;28;20183;-65
2022/07/02 08:31:33;;;;;;;2.00;1.90;;;17.90;64.00;;;;;;4212782;28;20239;-64
2022/07/02 08:33:33;;;;;;;0.70;0.70;;;17.80;63.40;;;;;;4213366;28;20569;-65
2022/07/02 08:35:34;;;;;;;0.60;0.60;;;17.90;69.80;;;;;;4213329;28;20193;-65
2022/07/02 08:37:35;;;;;;;25.40;24.27;;;18.00;62.10;;;;;;4213285;28;20591;-65
2022/07/02 08:39:35;;;;;;;9.67;9.17;;;17.90;60.60;;;;;;4213341;28;20227;-65
2022/07/02 08:41:37;;;;;;;24.63;23.50;;;17.80;63.40;;;;;;4212546;28;20199;-65
2022/07/02 08:43:40;;;;;;;18.47;17.63;;;17.80;59.30;;;;;;4212966;28;20197;-65
2022/07/02 08:45:42;;;;;;;0.63;0.63;;;17.90;61.50;;;;;;4213267;28;20588;-66
2022/07/02 08:47:45;;;;;;;2.00;0.70;;;17.90;60.90;;;;;;4211852;28;20187;-65
2022/07/02 08:49:47;;;;;;;2.57;2.47;;;18.20;59.10;;;;;;4215179;28;20171;-65
2022/07/02 08:52:03;;;;;;;6.63;6.33;;;18.20;59.20;;;;;;4215076;28;20209;-65
2022/07/02 08:54:03;;;;;;;0.60;0.60;;;18.20;58.80;;;;;;4215905;28;20275;-65
2022/07/02 08:56:04;;;;;;;1.53;0.87;;;18.10;60.70;;;;;;4215377;28;20191;-64
2022/07/02 08:58:05;;;;;;;1.23;0.60;;;18.30;58.80;;;;;;4215426;28;20701;-65
2022/07/02 09:00:07;;;;;;;5.40;5.17;;;18.50;59.30;;;;;;4215762;28;20534;-64
2022/07/02 09:02:10;;;;;;;1.40;0.70;;;18.40;56.20;;;;;;4213991;28;20214;-65
2022/07/02 09:04:14;;;;;;;0.70;0.70;;;18.50;59.00;;;;;;4215364;28;20173;-64
2022/07/02 09:06:17;;;;;;;2.40;2.23;;;18.40;55.50;;;;;;4215572;28;20187;-65
2022/07/02 09:08:21;;;;;;;7.40;7.10;;;18.60;55.30;;;;;;4215771;28;20190;-64
2022/07/02 09:10:23;;;;;;;1.40;0.70;;;18.60;54.90;;;;;;4215792;28;20189;-65
2022/07/02 09:12:25;;;;;;;0.60;0.60;;;18.60;54.00;;;;;;4214778;28;20190;-65
2022/07/02 09:14:27;;;;;;;0.70;0.70;;;18.60;54.20;;;;;;4215580;28;20225;-65
2022/07/02 09:16:28;;;;;;;0.60;0.60;;;18.80;54.00;;;;;;4215411;28;20211;-65
2022/07/02 09:18:28;;;;;;;0.60;0.60;;;18.90;54.70;;;;;;4215159;28;20232;-65
2022/07/02 09:20:29;;;;;;;0.70;0.70;;;18.90;53.10;;;;;;4215214;28;20697;-65
2022/07/02 09:22:32;;;;;;;0.70;0.70;;;18.90;54.60;;;;;;4214733;28;20293;-65
2022/07/02 09:24:35;;;;;;;2.10;2.00;;;19.30;53.70;;;;;;4215186;28;20175;-64
2022/07/02 09:26:36;;;;;;;3.83;0.90;;;19.50;53.60;;;;;;4215006;28;20167;-65
2022/07/02 09:28:36;;;;;;;0.80;0.80;;;19.50;53.30;;;;;;4215040;28;20167;-64
2022/07/02 09:30:37;;;;;;;1.27;0.73;;;19.60;51.00;;;;;;4214959;28;20396;-65
2022/07/02 09:32:40;;;;;;;11.27;10.80;;;19.40;53.20;;;;;;4214476;28;20802;-65
2022/07/02 09:34:43;;;;;;;1.10;1.00;;;19.00;50.60;;;;;;4214977;28;20199;-65
2022/07/02 09:36:44;;;;;;;1.33;1.33;;;18.90;52.90;;;;;;4214829;28;20732;-65
2022/07/02 09:38:46;;;;;;;0.77;0.70;;;19.10;52.00;;;;;;4215142;28;20186;-65
2022/07/02 09:40:55;;;;;;;1.70;0.80;;;19.20;50.90;;;;;;4213818;28;20887;-65
2022/07/02 09:42:56;;;;;;;1.13;0.90;;;19.60;51.90;;;;;;4214213;28;20206;-65
2022/07/02 09:44:57;;;;;;;0.90;0.80;;;20.10;52.20;;;;;;4214157;28;20681;-65
2022/07/02 09:46:58;;;;;;;0.60;0.60;;;20.10;48.30;;;;;;4214639;28;20178;-65
2022/07/02 09:49:08;;;;;;;0.77;0.77;;;20.20;50.10;;;;;;4214814;28;20175;-65
2022/07/02 09:51:08;;;;;;;0.70;0.70;;;20.20;48.40;;;;;;4214322;28;20178;-64
2022/07/02 09:53:12;;;;;;;2.83;2.70;;;20.10;50.00;;;;;;4214092;28;20223;-65
2022/07/02 09:55:23;;;;;;;0.90;0.90;;;19.90;50.20;;;;;;4212194;28;20248;-65
2022/07/02 09:57:26;;;;;;;11.10;10.60;;;20.10;50.60;;;;;;4214976;28;20205;-65
2022/07/02 09:59:26;;;;;;;2.27;1.93;;;20.40;48.50;;;;;;4212376;28;20186;-65
2022/07/02 10:01:27;;;;;;;0.90;0.90;;;20.40;48.50;;;;;;4211655;28;20691;-65
2022/07/02 10:03:28;;;;;;;3.73;3.53;;;20.90;48.40;;;;;;4212290;28;20203;-65
2022/07/02 10:05:31;;;;;;;0.80;0.80;;;21.00;45.40;;;;;;4212023;28;20171;-65
2022/07/02 10:07:32;;;;;;;0.80;0.80;;;20.90;49.30;;;;;;4211948;28;20224;-65
2022/07/02 10:09:33;;;;;;;0.77;0.77;;;21.10;49.80;;;;;;4211721;28;20240;-65
2022/07/02 10:11:36;;;;;;;3.13;3.03;;;21.50;47.10;;;;;;4211284;28;20242;-65
2022/07/02 10:13:38;;;;;;;3.17;2.90;;;21.20;45.40;;;;;;4211554;28;20289;-63
2022/07/02 10:15:47;;;;;;;1.23;1.00;;;20.80;44.30;;;;;;4211904;28;20187;-63
2022/07/02 10:17:53;;;;;;;3.93;3.73;;;20.80;47.30;;;;;;4211843;28;20171;-65
2022/07/02 10:19:56;;;;;;;1.37;0.90;;;21.20;45.20;;;;;;4212029;28;20313;-64
2022/07/02 10:21:58;;;;;;;2.63;2.53;;;21.80;43.50;;;;;;4210805;28;20241;-65
2022/07/02 10:24:01;;;;;;;0.80;0.77;;;21.80;42.30;;;;;;4211583;28;20205;-65
2022/07/02 10:26:02;;;;;;;1.30;1.30;;;21.30;42.60;;;;;;4211621;28;20819;-64
2022/07/02 10:28:02;;;;;;;0.90;0.90;;;21.60;42.20;;;;;;4211716;28;20206;-65
2022/07/02 10:30:03;;;;;;;0.80;0.80;;;21.50;43.70;;;;;;4211708;28;20641;-64
2022/07/02 10:32:10;;;;;;;1.40;1.33;;;22.00;41.80;;;;;;4211157;28;20185;-64
2022/07/02 10:34:35;;;;;;;2.30;2.20;;;22.60;43.30;;;;;;4211917;28;20186;-64